sensor_id;sensor_type;location;lat;lon;timestamp;temperature;humidity
12053;DHT22;6087;48.982;12.064;2023-07-29T00:00:47;17.60;99.90
12053;DHT22;6087;48.982;12.064;2023-07-29T00:03:14;17.60;99.90
12053;DHT22;6087;48.982;12.064;2023-07-29T00:05:42;17.60;99.90
12053;DHT22;6087;48.982;12.064;2023-07-29T00:08:10;17.60;99.90
12053;DHT22;6087;48.982;12.064;2023-07-29T00:10:37;17.60;99.90
12053;DHT22;6087;48.982;12.064;2023-07-29T00:13:04;17.60;99.90
12053;DHT22;6087;48.982;12.064;2023-07-29T00:15:32;17.60;99.90
12053;DHT22;6087;48.982;12.064;2023-07-29T00:17:59;17.50;99.90
12053;DHT22;6087;48.982;12.064;2023-07-29T00:20:26;17.50;99.90
12053;DHT22;6087;48.982;12.064;2023-07-29T00:22:54;17.50;99.90
12053;DHT22;6087;48.982;12.064;2023-07-29T00:25:23;17.50;99.90
12053;DHT22;6087;48.982;12.064;2023-07-29T00:27:50;17.40;99.90
12053;DHT22;6087;48.982;12.064;2023-07-29T00:30:18;17.40;99.90
12053;DHT22;6087;48.982;12.064;2023-07-29T00:32:45;17.40;99.90
12053;DHT22;6087;48.982;12.064;2023-07-29T00:35:12;17.40;99.90
12053;DHT22;6087;48.982;12.064;2023-07-29T00:37:39;17.30;99.90
12053;DHT22;6087;48.982;12.064;2023-07-29T00:40:14;17.30;99.90
12053;DHT22;6087;48.982;12.064;2023-07-29T00:42:42;17.30;99.90
12053;DHT22;6087;48.982;12.064;2023-07-29T00:45:10;17.40;99.90
12053;DHT22;6087;48.982;12.064;2023-07-29T00:47:37;17.40;99.90
12053;DHT22;6087;48.982;12.064;2023-07-29T00:50:05;17.40;99.90
12053;DHT22;6087;48.982;12.064;2023-07-29T00:52:39;17.40;99.90
12053;DHT22;6087;48.982;12.064;2023-07-29T00:55:08;17.40;99.90
12053;DHT22;6087;48.982;12.064;2023-07-29T00:57:35;17.40;99.90
12053;DHT22;6087;48.982;12.064;2023-07-29T01:00:03;17.40;99.90
12053;DHT22;6087;48.982;12.064;2023-07-29T01:02:30;17.30;99.90
12053;DHT22;6087;48.982;12.064;2023-07-29T01:04:58;17.30;99.90
12053;DHT22;6087;48.982;12.064;2023-07-29T01:07:30;17.30;99.90
12053;DHT22;6087;48.982;12.064;2023-07-29T01:10:06;17.20;99.90
12053;DHT22;6087;48.982;12.064;2023-07-29T01:12:52;17.20;99.90
12053;DHT22;6087;48.982;12.064;2023-07-29T01:15:26;17.20;99.90
12053;DHT22;6087;48.982;12.064;2023-07-29T01:17:56;17.20;99.90
12053;DHT22;6087;48.982;12.064;2023-07-29T01:20:26;17.20;99.90
12053;DHT22;6087;48.982;12.064;2023-07-29T01:22:54;17.20;99.90
12053;DHT22;6087;48.982;12.064;2023-07-29T01:25:23;17.20;99.90
12053;DHT22;6087;48.982;12.064;2023-07-29T01:27:52;17.20;99.90
12053;DHT22;6087;48.982;12.064;2023-07-29T01:30:24;17.20;99.90
12053;DHT22;6087;48.982;12.064;2023-07-29T01:32:55;17.20;99.90
12053;DHT22;6087;48.982;12.064;2023-07-29T01:35:28;17.20;99.90
12053;DHT22;6087;48.982;12.064;2023-07-29T01:38:17;17.20;99.90
12053;DHT22;6087;48.982;12.064;2023-07-29T01:40:48;17.20;99.90
12053;DHT22;6087;48.982;12.064;2023-07-29T01:43:15;17.20;99.90
12053;DHT22;6087;48.982;12.064;2023-07-29T01:45:47;17.20;99.90
12053;DHT22;6087;48.982;12.064;2023-07-29T01:48:22;17.10;99.90
12053;DHT22;6087;48.982;12.064;2023-07-29T01:50:50;17.10;99.90
12053;DHT22;6087;48.982;12.064;2023-07-29T01:53:17;17.10;99.90
12053;DHT22;6087;48.982;12.064;2023-07-29T01:55:49;17.10;99.90
12053;DHT22;6087;48.982;12.064;2023-07-29T01:58:16;17.10;99.90
12053;DHT22;6087;48.982;12.064;2023-07-29T02:00:43;17.10;99.90
12053;DHT22;6087;48.982;12.064;2023-07-29T02:03:10;17.10;99.90
12053;DHT22;6087;48.982;12.064;2023-07-29T02:05:37;17.10;99.90
12053;DHT22;6087;48.982;12.064;2023-07-29T02:08:04;17.00;99.90
12053;DHT22;6087;48.982;12.064;2023-07-29T02:10:31;17.00;99.90
12053;DHT22;6087;48.982;12.064;2023-07-29T02:13:00;17.00;99.90
12053;DHT22;6087;48.982;12.064;2023-07-29T02:15:27;17.00;99.90
12053;DHT22;6087;48.982;12.064;2023-07-29T02:17:54;17.00;99.90
12053;DHT22;6087;48.982;12.064;2023-07-29T02:20:21;17.00;99.90
12053;DHT22;6087;48.982;12.064;2023-07-29T02:22:48;17.00;99.90
12053;DHT22;6087;48.982;12.064;2023-07-29T02:25:15;17.00;99.90
12053;DHT22;6087;48.982;12.064;2023-07-29T02:27:42;17.00;99.90
12053;DHT22;6087;48.982;12.064;2023-07-29T02:30:11;17.00;99.90
12053;DHT22;6087;48.982;12.064;2023-07-29T02:32:38;17.00;99.90
12053;DHT22;6087;48.982;12.064;2023-07-29T02:35:06;17.00;99.90
12053;DHT22;6087;48.982;12.064;2023-07-29T02:37:33;16.90;99.90
12053;DHT22;6087;48.982;12.064;2023-07-29T02:40:00;16.90;99.90
12053;DHT22;6087;48.982;12.064;2023-07-29T02:42:28;16.90;99.90
12053;DHT22;6087;48.982;12.064;2023-07-29T02:44:56;16.90;99.90
12053;DHT22;6087;48.982;12.064;2023-07-29T02:47:24;16.90;99.90
12053;DHT22;6087;48.982;12.064;2023-07-29T02:49:51;16.90;99.90
12053;DHT22;6087;48.982;12.064;2023-07-29T02:52:18;16.90;99.90
12053;DHT22;6087;48.982;12.064;2023-07-29T02:54:45;16.80;99.90
12053;DHT22;6087;48.982;12.064;2023-07-29T02:57:15;16.80;99.90
12053;DHT22;6087;48.982;12.064;2023-07-29T02:59:43;16.80;99.90
12053;DHT22;6087;48.982;12.064;2023-07-29T03:02:11;16.80;99.90
12053;DHT22;6087;48.982;12.064;2023-07-29T03:04:39;16.80;99.90
12053;DHT22;6087;48.982;12.064;2023-07-29T03:07:06;16.80;99.90
12053;DHT22;6087;48.982;12.064;2023-07-29T03:09:33;16.70;99.90
12053;DHT22;6087;48.982;12.064;2023-07-29T03:12:00;16.80;99.90
12053;DHT22;6087;48.982;12.064;2023-07-29T03:14:27;16.80;99.90
12053;DHT22;6087;48.982;12.064;2023-07-29T03:16:54;16.80;99.90
12053;DHT22;6087;48.982;12.064;2023-07-29T03:19:21;16.80;99.90
12053;DHT22;6087;48.982;12.064;2023-07-29T03:21:51;16.80;99.90
12053;DHT22;6087;48.982;12.064;2023-07-29T03:24:18;16.80;99.90
12053;DHT22;6087;48.982;12.064;2023-07-29T03:26:45;16.80;99.90
12053;DHT22;6087;48.982;12.064;2023-07-29T03:29:12;16.90;99.90
12053;DHT22;6087;48.982;12.064;2023-07-29T03:31:39;16.80;99.90
12053;DHT22;6087;48.982;12.064;2023-07-29T03:34:06;16.80;99.90
12053;DHT22;6087;48.982;12.064;2023-07-29T03:36:33;16.90;99.90
12053;DHT22;6087;48.982;12.064;2023-07-29T03:39:02;16.90;99.90
12053;DHT22;6087;48.982;12.064;2023-07-29T03:41:29;16.80;99.90
12053;DHT22;6087;48.982;12.064;2023-07-29T03:43:56;16.80;99.90
12053;DHT22;6087;48.982;12.064;2023-07-29T03:46:24;16.80;99.90
12053;DHT22;6087;48.982;12.064;2023-07-29T03:48:51;16.70;99.90
12053;DHT22;6087;48.982;12.064;2023-07-29T03:51:18;16.70;99.90
12053;DHT22;6087;48.982;12.064;2023-07-29T03:53:45;16.60;99.90
12053;DHT22;6087;48.982;12.064;2023-07-29T03:56:13;16.70;99.90
12053;DHT22;6087;48.982;12.064;2023-07-29T03:58:41;16.70;99.90
12053;DHT22;6087;48.982;12.064;2023-07-29T04:01:08;16.70;99.90
12053;DHT22;6087;48.982;12.064;2023-07-29T04:03:35;16.70;99.90
12053;DHT22;6087;48.982;12.064;2023-07-29T04:06:02;16.70;99.90
12053;DHT22;6087;48.982;12.064;2023-07-29T04:08:29;16.70;99.90
12053;DHT22;6087;48.982;12.064;2023-07-29T04:10:56;16.70;99.90
12053;DHT22;6087;48.982;12.064;2023-07-29T04:13:25;16.70;99.90
12053;DHT22;6087;48.982;12.064;2023-07-29T04:15:52;16.60;99.90
12053;DHT22;6087;48.982;12.064;2023-07-29T04:18:20;16.60;99.90
12053;DHT22;6087;48.982;12.064;2023-07-29T04:20:47;16.60;99.90
12053;DHT22;6087;48.982;12.064;2023-07-29T04:23:14;16.60;99.90
12053;DHT22;6087;48.982;12.064;2023-07-29T04:25:41;16.60;99.90
12053;DHT22;6087;48.982;12.064;2023-07-29T04:28:08;16.70;99.90
12053;DHT22;6087;48.982;12.064;2023-07-29T04:30:37;16.70;99.90
12053;DHT22;6087;48.982;12.064;2023-07-29T04:33:04;16.70;99.90
12053;DHT22;6087;48.982;12.064;2023-07-29T04:35:31;16.70;99.90
12053;DHT22;6087;48.982;12.064;2023-07-29T04:37:58;16.70;99.90
12053;DHT22;6087;48.982;12.064;2023-07-29T04:40:25;16.70;99.90
12053;DHT22;6087;48.982;12.064;2023-07-29T04:42:55;16.70;99.90
12053;DHT22;6087;48.982;12.064;2023-07-29T04:45:22;16.70;99.90
12053;DHT22;6087;48.982;12.064;2023-07-29T04:47:51;16.80;99.90
12053;DHT22;6087;48.982;12.064;2023-07-29T04:50:18;16.90;99.90
12053;DHT22;6087;48.982;12.064;2023-07-29T04:52:45;16.80;99.90
12053;DHT22;6087;48.982;12.064;2023-07-29T04:55:13;16.90;99.90
12053;DHT22;6087;48.982;12.064;2023-07-29T04:57:40;16.90;99.90
12053;DHT22;6087;48.982;12.064;2023-07-29T05:00:07;16.90;99.90
12053;DHT22;6087;48.982;12.064;2023-07-29T05:02:35;16.90;99.90
12053;DHT22;6087;48.982;12.064;2023-07-29T05:05:04;17.00;99.90
12053;DHT22;6087;48.982;12.064;2023-07-29T05:07:31;17.00;99.90
12053;DHT22;6087;48.982;12.064;2023-07-29T05:09:59;17.00;99.90
12053;DHT22;6087;48.982;12.064;2023-07-29T05:12:26;17.10;99.90
12053;DHT22;6087;48.982;12.064;2023-07-29T05:14:55;17.10;99.90
12053;DHT22;6087;48.982;12.064;2023-07-29T05:17:22;17.20;99.90
12053;DHT22;6087;48.982;12.064;2023-07-29T05:19:49;17.20;99.90
12053;DHT22;6087;48.982;12.064;2023-07-29T05:22:17;17.30;99.90
12053;DHT22;6087;48.982;12.064;2023-07-29T05:24:45;17.30;99.90
12053;DHT22;6087;48.982;12.064;2023-07-29T05:27:12;17.40;99.90
12053;DHT22;6087;48.982;12.064;2023-07-29T05:29:39;17.40;99.90
12053;DHT22;6087;48.982;12.064;2023-07-29T05:32:06;17.50;99.90
12053;DHT22;6087;48.982;12.064;2023-07-29T05:34:33;17.50;99.90
12053;DHT22;6087;48.982;12.064;2023-07-29T05:37:00;17.50;99.90
12053;DHT22;6087;48.982;12.064;2023-07-29T05:39:30;17.60;99.90
12053;DHT22;6087;48.982;12.064;2023-07-29T05:42:00;17.60;99.90
12053;DHT22;6087;48.982;12.064;2023-07-29T05:44:29;17.70;99.90
12053;DHT22;6087;48.982;12.064;2023-07-29T05:46:57;17.80;99.90
12053;DHT22;6087;48.982;12.064;2023-07-29T05:49:32;17.90;99.90
12053;DHT22;6087;48.982;12.064;2023-07-29T05:51:59;17.90;99.90
12053;DHT22;6087;48.982;12.064;2023-07-29T05:54:33;18.00;99.90
12053;DHT22;6087;48.982;12.064;2023-07-29T05:57:00;18.10;99.90
12053;DHT22;6087;48.982;12.064;2023-07-29T05:59:28;18.10;99.90
12053;DHT22;6087;48.982;12.064;2023-07-29T06:01:55;18.20;99.90
12053;DHT22;6087;48.982;12.064;2023-07-29T06:04:22;18.20;99.90
12053;DHT22;6087;48.982;12.064;2023-07-29T06:06:49;18.30;99.90
12053;DHT22;6087;48.982;12.064;2023-07-29T06:09:16;18.30;99.90
12053;DHT22;6087;48.982;12.064;2023-07-29T06:11:45;18.30;99.90
12053;DHT22;6087;48.982;12.064;2023-07-29T06:14:12;18.30;99.90
12053;DHT22;6087;48.982;12.064;2023-07-29T06:16:39;18.40;99.90
12053;DHT22;6087;48.982;12.064;2023-07-29T06:19:06;18.40;99.90
12053;DHT22;6087;48.982;12.064;2023-07-29T06:21:34;18.40;99.90
12053;DHT22;6087;48.982;12.064;2023-07-29T06:24:01;18.40;99.90
12053;DHT22;6087;48.982;12.064;2023-07-29T06:26:29;18.50;99.90
12053;DHT22;6087;48.982;12.064;2023-07-29T06:28:57;18.40;99.90
12053;DHT22;6087;48.982;12.064;2023-07-29T06:31:24;18.40;99.90
12053;DHT22;6087;48.982;12.064;2023-07-29T06:33:51;18.50;99.90
12053;DHT22;6087;48.982;12.064;2023-07-29T06:36:26;18.50;99.90
12053;DHT22;6087;48.982;12.064;2023-07-29T06:38:55;18.50;99.90
12053;DHT22;6087;48.982;12.064;2023-07-29T06:41:28;18.60;99.90
12053;DHT22;6087;48.982;12.064;2023-07-29T06:43:56;18.60;99.90
12053;DHT22;6087;48.982;12.064;2023-07-29T06:46:23;18.70;99.90
12053;DHT22;6087;48.982;12.064;2023-07-29T06:48:51;18.70;99.90
12053;DHT22;6087;48.982;12.064;2023-07-29T06:51:18;18.70;99.90
12053;DHT22;6087;48.982;12.064;2023-07-29T06:53:45;18.80;99.90
12053;DHT22;6087;48.982;12.064;2023-07-29T06:56:12;18.80;99.90
12053;DHT22;6087;48.982;12.064;2023-07-29T06:58:39;18.80;99.90
12053;DHT22;6087;48.982;12.064;2023-07-29T07:01:08;18.80;99.90
12053;DHT22;6087;48.982;12.064;2023-07-29T07:03:35;18.70;99.90
12053;DHT22;6087;48.982;12.064;2023-07-29T07:06:02;18.70;99.90
12053;DHT22;6087;48.982;12.064;2023-07-29T07:08:31;18.70;99.90
12053;DHT22;6087;48.982;12.064;2023-07-29T07:10:58;18.70;99.90
12053;DHT22;6087;48.982;12.064;2023-07-29T07:13:27;18.60;99.90
12053;DHT22;6087;48.982;12.064;2023-07-29T07:15:56;18.60;99.90
12053;DHT22;6087;48.982;12.064;2023-07-29T07:18:25;18.60;99.90
12053;DHT22;6087;48.982;12.064;2023-07-29T07:20:52;18.60;99.90
12053;DHT22;6087;48.982;12.064;2023-07-29T07:23:19;18.60;99.90
12053;DHT22;6087;48.982;12.064;2023-07-29T07:25:46;18.60;99.90
12053;DHT22;6087;48.982;12.064;2023-07-29T07:28:13;18.60;99.90
12053;DHT22;6087;48.982;12.064;2023-07-29T07:30:41;18.60;99.90
12053;DHT22;6087;48.982;12.064;2023-07-29T07:33:09;18.70;99.90
12053;DHT22;6087;48.982;12.064;2023-07-29T07:35:40;18.70;99.90
12053;DHT22;6087;48.982;12.064;2023-07-29T07:38:08;18.80;99.90
12053;DHT22;6087;48.982;12.064;2023-07-29T07:40:36;18.80;99.90
12053;DHT22;6087;48.982;12.064;2023-07-29T07:43:03;18.80;99.90
12053;DHT22;6087;48.982;12.064;2023-07-29T07:45:32;18.80;99.90
12053;DHT22;6087;48.982;12.064;2023-07-29T07:47:59;18.80;99.90
12053;DHT22;6087;48.982;12.064;2023-07-29T07:50:29;18.80;99.90
12053;DHT22;6087;48.982;12.064;2023-07-29T07:52:58;18.90;99.90
12053;DHT22;6087;48.982;12.064;2023-07-29T07:55:25;18.90;99.90
12053;DHT22;6087;48.982;12.064;2023-07-29T07:57:53;18.90;99.90
12053;DHT22;6087;48.982;12.064;2023-07-29T08:00:21;18.80;99.90
12053;DHT22;6087;48.982;12.064;2023-07-29T08:02:48;18.90;99.90
12053;DHT22;6087;48.982;12.064;2023-07-29T08:05:15;18.80;99.90
12053;DHT22;6087;48.982;12.064;2023-07-29T08:07:46;18.80;99.90
12053;DHT22;6087;48.982;12.064;2023-07-29T08:10:15;18.80;99.90
12053;DHT22;6087;48.982;12.064;2023-07-29T08:12:43;18.80;99.90
12053;DHT22;6087;48.982;12.064;2023-07-29T08:15:10;18.70;99.90
12053;DHT22;6087;48.982;12.064;2023-07-29T08:17:37;18.70;99.90
12053;DHT22;6087;48.982;12.064;2023-07-29T08:20:07;18.60;99.90
12053;DHT22;6087;48.982;12.064;2023-07-29T08:22:35;18.40;99.90
12053;DHT22;6087;48.982;12.064;2023-07-29T08:25:05;18.20;99.90
12053;DHT22;6087;48.982;12.064;2023-07-29T08:27:35;18.10;99.90
12053;DHT22;6087;48.982;12.064;2023-07-29T08:30:02;18.00;99.90
12053;DHT22;6087;48.982;12.064;2023-07-29T08:32:29;18.00;99.90
12053;DHT22;6087;48.982;12.064;2023-07-29T08:34:56;18.10;99.90
12053;DHT22;6087;48.982;12.064;2023-07-29T08:37:23;18.00;99.90
12053;DHT22;6087;48.982;12.064;2023-07-29T08:39:50;18.00;99.90
12053;DHT22;6087;48.982;12.064;2023-07-29T08:42:20;17.90;99.90
12053;DHT22;6087;48.982;12.064;2023-07-29T08:44:49;17.90;99.90
12053;DHT22;6087;48.982;12.064;2023-07-29T08:47:18;17.80;99.90
12053;DHT22;6087;48.982;12.064;2023-07-29T08:49:46;17.80;99.90
12053;DHT22;6087;48.982;12.064;2023-07-29T08:52:14;17.80;99.90
12053;DHT22;6087;48.982;12.064;2023-07-29T08:54:42;17.70;99.90
12053;DHT22;6087;48.982;12.064;2023-07-29T08:57:10;17.70;99.90
12053;DHT22;6087;48.982;12.064;2023-07-29T08:59:37;17.80;99.90
12053;DHT22;6087;48.982;12.064;2023-07-29T09:02:07;17.80;99.90
12053;DHT22;6087;48.982;12.064;2023-07-29T09:04:34;17.80;99.90
12053;DHT22;6087;48.982;12.064;2023-07-29T09:07:01;17.90;99.90
12053;DHT22;6087;48.982;12.064;2023-07-29T09:09:29;17.90;99.90
12053;DHT22;6087;48.982;12.064;2023-07-29T09:11:57;18.00;99.90
12053;DHT22;6087;48.982;12.064;2023-07-29T09:14:24;18.10;99.90
12053;DHT22;6087;48.982;12.064;2023-07-29T09:16:51;18.20;99.90
12053;DHT22;6087;48.982;12.064;2023-07-29T09:19:21;18.20;99.90
12053;DHT22;6087;48.982;12.064;2023-07-29T09:21:49;18.30;99.90
12053;DHT22;6087;48.982;12.064;2023-07-29T09:24:17;18.40;99.90
12053;DHT22;6087;48.982;12.064;2023-07-29T09:26:49;18.50;99.90
12053;DHT22;6087;48.982;12.064;2023-07-29T09:29:22;18.50;99.90
12053;DHT22;6087;48.982;12.064;2023-07-29T09:31:50;18.50;99.90
12053;DHT22;6087;48.982;12.064;2023-07-29T09:34:21;18.50;99.90
12053;DHT22;6087;48.982;12.064;2023-07-29T09:36:50;18.50;99.90
12053;DHT22;6087;48.982;12.064;2023-07-29T09:39:18;18.50;99.90
12053;DHT22;6087;48.982;12.064;2023-07-29T09:41:47;18.50;99.90
12053;DHT22;6087;48.982;12.064;2023-07-29T09:44:15;18.50;99.90
12053;DHT22;6087;48.982;12.064;2023-07-29T09:46:46;18.50;99.90
12053;DHT22;6087;48.982;12.064;2023-07-29T09:49:13;18.50;99.90
12053;DHT22;6087;48.982;12.064;2023-07-29T09:51:43;18.60;99.90
12053;DHT22;6087;48.982;12.064;2023-07-29T09:54:11;18.70;99.90
12053;DHT22;6087;48.982;12.064;2023-07-29T09:56:42;18.70;99.90
12053;DHT22;6087;48.982;12.064;2023-07-29T09:59:10;18.80;99.90
12053;DHT22;6087;48.982;12.064;2023-07-29T10:01:40;19.00;99.90
12053;DHT22;6087;48.982;12.064;2023-07-29T10:04:09;19.00;99.90
12053;DHT22;6087;48.982;12.064;2023-07-29T10:06:38;19.00;99.90
12053;DHT22;6087;48.982;12.064;2023-07-29T10:09:07;18.90;99.90
12053;DHT22;6087;48.982;12.064;2023-07-29T10:11:36;18.80;99.90
12053;DHT22;6087;48.982;12.064;2023-07-29T10:14:04;18.80;99.90
12053;DHT22;6087;48.982;12.064;2023-07-29T10:16:35;18.70;99.90
12053;DHT22;6087;48.982;12.064;2023-07-29T10:19:04;18.60;99.90
12053;DHT22;6087;48.982;12.064;2023-07-29T10:21:34;18.60;99.90
12053;DHT22;6087;48.982;12.064;2023-07-29T10:24:09;18.60;99.90
12053;DHT22;6087;48.982;12.064;2023-07-29T10:26:42;18.50;99.90
12053;DHT22;6087;48.982;12.064;2023-07-29T10:29:13;18.50;99.90
12053;DHT22;6087;48.982;12.064;2023-07-29T10:31:43;18.50;99.90
12053;DHT22;6087;48.982;12.064;2023-07-29T10:34:12;18.50;99.90
12053;DHT22;6087;48.982;12.064;2023-07-29T10:36:41;18.50;99.90
12053;DHT22;6087;48.982;12.064;2023-07-29T10:39:09;18.60;99.90
12053;DHT22;6087;48.982;12.064;2023-07-29T10:41:56;18.60;99.90
12053;DHT22;6087;48.982;12.064;2023-07-29T10:44:48;18.70;99.90
12053;DHT22;6087;48.982;12.064;2023-07-29T10:47:17;18.90;99.90
12053;DHT22;6087;48.982;12.064;2023-07-29T10:49:46;19.00;99.90
12053;DHT22;6087;48.982;12.064;2023-07-29T10:52:15;19.20;99.90
12053;DHT22;6087;48.982;12.064;2023-07-29T10:54:45;19.40;99.90
12053;DHT22;6087;48.982;12.064;2023-07-29T10:57:15;19.50;99.90
12053;DHT22;6087;48.982;12.064;2023-07-29T10:59:54;19.60;99.90
12053;DHT22;6087;48.982;12.064;2023-07-29T11:02:28;19.70;99.90
12053;DHT22;6087;48.982;12.064;2023-07-29T11:04:56;19.90;99.90
12053;DHT22;6087;48.982;12.064;2023-07-29T11:07:25;19.90;99.90
12053;DHT22;6087;48.982;12.064;2023-07-29T11:09:59;20.00;99.90
12053;DHT22;6087;48.982;12.064;2023-07-29T11:12:39;20.10;99.90
12053;DHT22;6087;48.982;12.064;2023-07-29T11:15:19;20.10;99.90
12053;DHT22;6087;48.982;12.064;2023-07-29T11:17:48;20.20;99.90
12053;DHT22;6087;48.982;12.064;2023-07-29T11:20:16;20.30;99.90
12053;DHT22;6087;48.982;12.064;2023-07-29T11:22:43;20.20;99.90
12053;DHT22;6087;48.982;12.064;2023-07-29T11:25:13;20.30;99.90
12053;DHT22;6087;48.982;12.064;2023-07-29T11:27:41;20.50;99.90
12053;DHT22;6087;48.982;12.064;2023-07-29T11:30:09;20.60;99.90
12053;DHT22;6087;48.982;12.064;2023-07-29T11:32:37;20.70;99.90
12053;DHT22;6087;48.982;12.064;2023-07-29T11:35:06;20.70;99.90
12053;DHT22;6087;48.982;12.064;2023-07-29T11:37:35;20.70;99.90
12053;DHT22;6087;48.982;12.064;2023-07-29T11:40:04;20.70;99.90
12053;DHT22;6087;48.982;12.064;2023-07-29T11:42:34;20.60;95.70
12053;DHT22;6087;48.982;12.064;2023-07-29T11:45:01;20.60;99.90
12053;DHT22;6087;48.982;12.064;2023-07-29T11:47:29;20.70;99.90
12053;DHT22;6087;48.982;12.064;2023-07-29T11:49:59;20.80;99.90
12053;DHT22;6087;48.982;12.064;2023-07-29T11:52:27;20.90;99.90
12053;DHT22;6087;48.982;12.064;2023-07-29T11:54:55;21.00;98.70
12053;DHT22;6087;48.982;12.064;2023-07-29T11:57:23;20.90;99.90
12053;DHT22;6087;48.982;12.064;2023-07-29T11:59:53;20.90;94.40
12053;DHT22;6087;48.982;12.064;2023-07-29T12:02:20;21.10;99.90
12053;DHT22;6087;48.982;12.064;2023-07-29T12:04:48;21.10;95.80
12053;DHT22;6087;48.982;12.064;2023-07-29T12:07:17;21.20;97.40
12053;DHT22;6087;48.982;12.064;2023-07-29T12:09:45;21.20;95.60
12053;DHT22;6087;48.982;12.064;2023-07-29T12:12:12;21.20;95.50
12053;DHT22;6087;48.982;12.064;2023-07-29T12:14:44;21.20;93.30
12053;DHT22;6087;48.982;12.064;2023-07-29T12:17:12;21.20;96.60
12053;DHT22;6087;48.982;12.064;2023-07-29T12:19:41;21.20;92.80
12053;DHT22;6087;48.982;12.064;2023-07-29T12:22:10;21.30;90.70
12053;DHT22;6087;48.982;12.064;2023-07-29T12:24:38;21.40;92.60
12053;DHT22;6087;48.982;12.064;2023-07-29T12:27:09;21.50;78.50
12053;DHT22;6087;48.982;12.064;2023-07-29T12:29:40;21.50;90.60
12053;DHT22;6087;48.982;12.064;2023-07-29T12:32:08;21.60;83.70
12053;DHT22;6087;48.982;12.064;2023-07-29T12:34:38;21.70;75.80
12053;DHT22;6087;48.982;12.064;2023-07-29T12:37:07;21.70;77.70
12053;DHT22;6087;48.982;12.064;2023-07-29T12:39:35;21.80;77.40
12053;DHT22;6087;48.982;12.064;2023-07-29T12:42:03;22.10;82.70
12053;DHT22;6087;48.982;12.064;2023-07-29T12:44:32;22.20;70.50
12053;DHT22;6087;48.982;12.064;2023-07-29T12:47:00;22.20;69.60
12053;DHT22;6087;48.982;12.064;2023-07-29T12:49:28;22.20;66.20
12053;DHT22;6087;48.982;12.064;2023-07-29T12:51:56;22.20;64.60
12053;DHT22;6087;48.982;12.064;2023-07-29T12:54:24;22.20;58.70
12053;DHT22;6087;48.982;12.064;2023-07-29T12:56:51;22.20;56.30
12053;DHT22;6087;48.982;12.064;2023-07-29T12:59:18;22.20;54.80
12053;DHT22;6087;48.982;12.064;2023-07-29T13:01:45;22.20;54.00
12053;DHT22;6087;48.982;12.064;2023-07-29T13:04:12;22.30;55.90
12053;DHT22;6087;48.982;12.064;2023-07-29T13:06:39;22.30;53.00
12053;DHT22;6087;48.982;12.064;2023-07-29T13:09:08;22.20;55.70
12053;DHT22;6087;48.982;12.064;2023-07-29T13:11:35;22.10;56.50
12053;DHT22;6087;48.982;12.064;2023-07-29T13:14:02;22.00;55.00
12053;DHT22;6087;48.982;12.064;2023-07-29T13:16:29;21.90;57.80
12053;DHT22;6087;48.982;12.064;2023-07-29T13:18:56;21.80;57.90
12053;DHT22;6087;48.982;12.064;2023-07-29T13:21:23;21.80;63.50
12053;DHT22;6087;48.982;12.064;2023-07-29T13:23:52;21.70;70.40
12053;DHT22;6087;48.982;12.064;2023-07-29T13:26:21;21.70;77.60
12053;DHT22;6087;48.982;12.064;2023-07-29T13:28:48;21.60;76.40
12053;DHT22;6087;48.982;12.064;2023-07-29T13:31:15;21.60;79.60
12053;DHT22;6087;48.982;12.064;2023-07-29T13:33:42;21.60;86.80
12053;DHT22;6087;48.982;12.064;2023-07-29T13:36:09;21.60;82.10
12053;DHT22;6087;48.982;12.064;2023-07-29T13:38:36;21.60;87.30
12053;DHT22;6087;48.982;12.064;2023-07-29T13:41:03;21.70;79.00
12053;DHT22;6087;48.982;12.064;2023-07-29T13:43:32;21.80;84.70
12053;DHT22;6087;48.982;12.064;2023-07-29T13:45:59;21.80;80.20
12053;DHT22;6087;48.982;12.064;2023-07-29T13:48:26;22.00;82.50
12053;DHT22;6087;48.982;12.064;2023-07-29T13:50:53;22.00;78.00
12053;DHT22;6087;48.982;12.064;2023-07-29T13:53:20;22.10;74.80
12053;DHT22;6087;48.982;12.064;2023-07-29T13:55:47;22.10;70.10
12053;DHT22;6087;48.982;12.064;2023-07-29T13:58:15;22.20;70.10
12053;DHT22;6087;48.982;12.064;2023-07-29T14:00:43;22.30;74.90
12053;DHT22;6087;48.982;12.064;2023-07-29T14:03:10;22.40;61.90
12053;DHT22;6087;48.982;12.064;2023-07-29T14:05:37;22.40;61.40
12053;DHT22;6087;48.982;12.064;2023-07-29T14:08:04;22.40;65.10
12053;DHT22;6087;48.982;12.064;2023-07-29T14:10:31;22.50;63.60
12053;DHT22;6087;48.982;12.064;2023-07-29T14:12:58;22.50;60.00
12053;DHT22;6087;48.982;12.064;2023-07-29T14:15:25;22.50;57.60
12053;DHT22;6087;48.982;12.064;2023-07-29T14:17:55;22.50;63.80
12053;DHT22;6087;48.982;12.064;2023-07-29T14:20:22;22.50;59.50
12053;DHT22;6087;48.982;12.064;2023-07-29T14:22:49;22.40;53.50
12053;DHT22;6087;48.982;12.064;2023-07-29T14:25:16;22.40;55.70
12053;DHT22;6087;48.982;12.064;2023-07-29T14:27:44;22.40;55.60
12053;DHT22;6087;48.982;12.064;2023-07-29T14:30:14;22.30;56.40
12053;DHT22;6087;48.982;12.064;2023-07-29T14:32:41;22.40;57.50
12053;DHT22;6087;48.982;12.064;2023-07-29T14:35:12;22.30;55.10
12053;DHT22;6087;48.982;12.064;2023-07-29T14:37:39;22.20;55.90
12053;DHT22;6087;48.982;12.064;2023-07-29T14:40:07;22.20;56.70
12053;DHT22;6087;48.982;12.064;2023-07-29T14:42:34;22.20;57.50
12053;DHT22;6087;48.982;12.064;2023-07-29T14:45:01;22.20;57.40
12053;DHT22;6087;48.982;12.064;2023-07-29T14:47:28;22.20;58.50
12053;DHT22;6087;48.982;12.064;2023-07-29T14:50:00;22.30;57.50
12053;DHT22;6087;48.982;12.064;2023-07-29T14:52:28;22.40;54.50
12053;DHT22;6087;48.982;12.064;2023-07-29T14:54:55;22.40;54.30
12053;DHT22;6087;48.982;12.064;2023-07-29T14:57:26;22.50;55.30
12053;DHT22;6087;48.982;12.064;2023-07-29T14:59:55;22.50;50.90
12053;DHT22;6087;48.982;12.064;2023-07-29T15:02:22;22.60;54.10
12053;DHT22;6087;48.982;12.064;2023-07-29T15:04:51;22.60;49.90
12053;DHT22;6087;48.982;12.064;2023-07-29T15:07:18;22.50;50.40
12053;DHT22;6087;48.982;12.064;2023-07-29T15:09:47;22.50;48.80
12053;DHT22;6087;48.982;12.064;2023-07-29T15:12:14;22.50;46.40
12053;DHT22;6087;48.982;12.064;2023-07-29T15:14:41;22.50;46.40
12053;DHT22;6087;48.982;12.064;2023-07-29T15:17:08;22.40;43.40
12053;DHT22;6087;48.982;12.064;2023-07-29T15:19:35;22.40;45.80
12053;DHT22;6087;48.982;12.064;2023-07-29T15:22:02;22.50;47.70
12053;DHT22;6087;48.982;12.064;2023-07-29T15:24:30;22.50;44.60
12053;DHT22;6087;48.982;12.064;2023-07-29T15:26:58;22.50;44.80
12053;DHT22;6087;48.982;12.064;2023-07-29T15:29:25;22.50;44.10
12053;DHT22;6087;48.982;12.064;2023-07-29T15:31:52;22.50;44.00
12053;DHT22;6087;48.982;12.064;2023-07-29T15:34:20;22.50;45.20
12053;DHT22;6087;48.982;12.064;2023-07-29T15:36:49;22.50;45.30